createdAt,value
2023-02-21T00:00:38.021Z,100888.88
2023-02-21T00:06:00.503Z,100858.63
2023-02-21T00:11:23.829Z,100877.75
2023-02-21T00:16:44.812Z,100866.13
2023-02-21T00:22:07.083Z,100872.44
2023-02-21T00:27:28.193Z,100857.75
2023-02-21T00:32:49.340Z,100859.00
2023-02-21T00:38:11.470Z,100850.06
2023-02-21T00:43:32.328Z,100848.59
2023-02-21T00:48:53.537Z,100852.59
2023-02-21T00:54:15.744Z,100849.22
2023-02-21T00:59:36.804Z,100860.88
2023-02-21T01:04:57.651Z,100870.72
2023-02-21T01:10:20.302Z,100868.41
2023-02-21T01:15:41.543Z,100855.06
2023-02-21T01:21:02.385Z,100854.03
2023-02-21T01:26:27.143Z,100859.38
2023-02-21T01:31:51.474Z,100869.53
2023-02-21T01:37:12.427Z,100860.47
2023-02-21T01:42:35.891Z,100866.88
2023-02-21T01:47:57.088Z,100863.16
2023-02-21T01:53:18.805Z,100866.94
2023-02-21T01:58:41.868Z,100860.75
2023-02-21T02:04:05.136Z,100849.50
2023-02-21T02:09:34.991Z,100850.19
2023-02-21T02:15:03.749Z,100864.59
2023-02-21T02:20:52.632Z,100877.88
2023-02-21T02:26:20.243Z,100872.81
2023-02-21T02:31:41.567Z,100867.38
2023-02-21T02:36:50.478Z,100868.53
2023-02-21T02:41:59.412Z,100866.03
2023-02-21T02:47:04.074Z,100873.66
2023-02-21T02:52:10.527Z,100877.13
2023-02-21T02:57:14.624Z,100866.41
2023-02-21T03:02:40.028Z,100874.97
2023-02-21T03:07:51.725Z,100873.59
2023-02-21T03:13:02.304Z,100873.94
2023-02-21T03:18:18.640Z,100865.88
2023-02-21T03:23:23.987Z,100853.56
2023-02-21T03:28:27.619Z,100856.94
2023-02-21T03:33:31.412Z,100846.50
2023-02-21T03:38:36.623Z,100851.13
2023-02-21T03:43:40.076Z,100849.34
2023-02-21T03:48:43.639Z,100847.72
2023-02-21T03:53:58.925Z,100842.63
2023-02-21T03:59:12.032Z,100853.13
2023-02-21T04:04:15.858Z,100824.81
2023-02-21T04:09:21.461Z,100824.84
2023-02-21T04:14:25.462Z,100838.22
2023-02-21T04:19:29.058Z,100831.63
2023-02-21T04:24:34.007Z,100823.13
2023-02-21T04:29:38.219Z,100825.53
2023-02-21T04:34:41.788Z,100831.06
2023-02-21T04:39:47.232Z,100833.75
2023-02-21T04:45:00.012Z,100838.22
2023-02-21T04:50:05.676Z,100825.25
2023-02-21T04:55:10.546Z,100821.38
2023-02-21T05:00:14.922Z,100818.47
2023-02-21T05:05:18.581Z,100812.34
2023-02-21T05:10:26.976Z,100815.13
2023-02-21T05:15:34.575Z,100815.34
2023-02-21T05:20:37.951Z,100817.19
2023-02-21T05:25:42.717Z,100827.81
2023-02-21T05:30:46.192Z,100827.66
2023-02-21T05:35:49.886Z,100823.97
2023-02-21T05:40:55.110Z,100831.59
2023-02-21T05:45:58.531Z,100818.22
2023-02-21T05:51:01.918Z,100822.59
2023-02-21T05:56:08.449Z,100836.97
2023-02-21T06:01:14.304Z,100828.44
2023-02-21T06:06:18.066Z,100844.50
2023-02-21T06:11:26.838Z,100843.22
2023-02-21T06:16:34.021Z,100836.53
2023-02-21T06:21:37.696Z,100840.00
2023-02-21T06:26:42.460Z,100836.19
2023-02-21T06:31:45.876Z,100843.41
2023-02-21T06:36:52.574Z,100852.00
2023-02-21T06:41:57.398Z,100842.41
2023-02-21T06:47:00.804Z,100851.16
2023-02-21T06:52:04.325Z,100854.53
2023-02-21T06:57:09.215Z,100871.13
2023-02-21T07:02:18.196Z,100870.28
2023-02-21T07:07:21.650Z,100879.63
2023-02-21T07:12:27.833Z,100882.53
2023-02-21T07:17:31.268Z,100901.50
2023-02-21T07:22:34.651Z,100900.84
2023-02-21T07:27:39.447Z,100892.72
2023-02-21T07:32:42.921Z,100905.84
2023-02-21T07:37:46.345Z,100910.53
2023-02-21T07:42:51.260Z,100914.25
2023-02-21T07:47:54.746Z,100920.47
2023-02-21T07:52:59.703Z,100923.59
2023-02-21T07:58:04.968Z,100920.97
2023-02-21T08:03:09.187Z,100933.75
2023-02-21T08:08:12.678Z,100933.69
2023-02-21T08:13:18.840Z,100945.47
2023-02-21T08:18:24.319Z,100950.44
2023-02-21T08:23:28.069Z,100963.00
2023-02-21T08:28:32.995Z,100950.53
2023-02-21T08:33:36.434Z,100955.69
2023-02-21T08:38:41.063Z,100966.13
2023-02-21T08:43:47.717Z,100965.53
2023-02-21T08:48:51.152Z,100955.34
2023-02-21T08:53:54.679Z,100971.34
2023-02-21T08:58:59.858Z,100972.91
2023-02-21T09:04:05.166Z,100972.09
2023-02-21T09:09:08.598Z,100954.47
2023-02-21T09:14:13.497Z,100950.81
2023-02-21T09:19:16.971Z,100971.72
2023-02-21T09:24:25.286Z,100950.75
2023-02-21T09:29:43.812Z,100945.69
2023-02-21T09:34:49.195Z,100948.59
2023-02-21T09:39:52.694Z,100952.31
2023-02-21T09:44:57.570Z,100942.28
2023-02-21T09:50:04.626Z,100953.22
2023-02-21T09:55:10.284Z,100944.31
2023-02-21T10:00:21.689Z,100960.06
2023-02-21T10:05:34.648Z,100953.97
2023-02-21T10:10:44.832Z,100962.72
2023-02-21T10:15:54.688Z,100961.72
2023-02-21T10:21:01.613Z,100963.81
2023-02-21T10:26:09.261Z,100972.72
2023-02-21T10:31:18.211Z,100957.28
2023-02-21T10:36:23.808Z,100957.38
2023-02-21T10:41:31.109Z,100955.06
2023-02-21T10:46:40.676Z,100966.66
2023-02-21T10:51:44.180Z,100969.44
2023-02-21T10:56:48.575Z,100969.84
2023-02-21T11:01:54.020Z,100973.28
2023-02-21T11:06:59.404Z,100980.84
2023-02-21T11:12:05.845Z,100975.53
2023-02-21T11:17:19.400Z,100972.91
2023-02-21T11:22:25.372Z,100982.00
2023-02-21T11:27:31.290Z,100986.38
2023-02-21T11:32:38.706Z,100976.47
2023-02-21T11:37:49.882Z,100992.53
2023-02-21T11:42:53.520Z,100980.72
2023-02-21T11:48:02.953Z,100980.31
2023-02-21T11:53:12.614Z,100968.41
2023-02-21T11:58:21.724Z,100973.19
2023-02-21T12:03:41.451Z,100973.38
2023-02-21T12:08:48.961Z,100951.56
2023-02-21T12:14:04.016Z,100961.38
2023-02-21T12:19:24.801Z,100956.31
2023-02-21T12:24:37.460Z,100957.41
2023-02-21T12:30:01.987Z,100954.22
2023-02-21T12:35:34.096Z,100948.06
2023-02-21T12:40:43.754Z,100940.31
2023-02-21T12:45:56.184Z,100942.63
2023-02-21T12:51:04.993Z,100936.31
2023-02-21T12:56:11.028Z,100929.84
2023-02-21T13:01:20.709Z,100938.63
2023-02-21T13:06:31.653Z,100930.97
2023-02-21T13:11:38.740Z,100943.34
2023-02-21T13:16:42.120Z,100938.78
2023-02-21T13:21:55.972Z,100938.13
2023-02-21T13:27:20.619Z,100946.94
2023-02-21T13:32:24.200Z,100929.75
2023-02-21T13:37:31.424Z,100941.25
2023-02-21T13:42:36.378Z,100931.69
2023-02-21T13:48:13.068Z,100929.72
2023-02-21T13:53:19.996Z,100925.66
2023-02-21T13:58:45.347Z,100925.47
2023-02-21T14:03:49.022Z,100916.13
2023-02-21T14:08:56.472Z,100928.38
2023-02-21T14:14:00.996Z,100929.72
2023-02-21T14:19:08.286Z,100920.94
2023-02-21T14:24:17.018Z,100921.03
2023-02-21T14:29:37.792Z,100938.47
2023-02-21T14:34:51.130Z,100918.44
2023-02-21T14:39:57.685Z,100919.97
2023-02-21T14:45:24.557Z,100918.25
2023-02-21T14:50:35.958Z,100918.88
2023-02-21T14:56:01.652Z,100920.19
2023-02-21T15:01:10.064Z,100925.53
2023-02-21T15:06:18.434Z,100930.75
2023-02-21T15:11:27.983Z,100934.19
2023-02-21T15:16:32.663Z,100930.44
2023-02-21T15:21:36.150Z,100935.22
2023-02-21T15:26:41.050Z,100923.41
2023-02-21T15:31:46.466Z,100924.78
2023-02-21T15:36:55.469Z,100931.09
2023-02-21T15:42:01.037Z,100925.41
2023-02-21T15:47:08.456Z,100927.53
2023-02-21T15:52:27.997Z,100922.28
2023-02-21T15:57:32.708Z,100923.81
2023-02-21T16:02:36.162Z,100912.81
2023-02-21T16:07:41.087Z,100916.41
2023-02-21T16:12:46.691Z,100916.00
2023-02-21T16:17:54.349Z,100919.16
2023-02-21T16:23:24.602Z,100914.97
2023-02-21T16:28:29.756Z,100927.59
2023-02-21T16:33:33.639Z,100927.72
2023-02-21T16:38:36.989Z,100939.09
2023-02-21T16:43:41.726Z,100930.41
2023-02-21T16:48:45.118Z,100931.44
2023-02-21T16:53:48.817Z,100942.19
2023-02-21T16:58:56.557Z,100938.28
2023-02-21T17:04:01.475Z,100947.72
2023-02-21T17:09:05.086Z,100947.03
2023-02-21T17:14:09.936Z,100958.47
2023-02-21T17:19:14.906Z,100950.09
2023-02-21T17:24:18.638Z,100957.06
2023-02-21T17:29:23.447Z,100962.63
2023-02-21T17:34:26.835Z,100968.22
2023-02-21T17:39:30.679Z,100963.50
2023-02-21T17:44:37.607Z,100970.03
2023-02-21T17:49:41.084Z,100972.81
2023-02-21T17:54:44.770Z,100979.50
2023-02-21T17:59:49.699Z,100983.69
2023-02-21T18:04:53.114Z,100991.84
2023-02-21T18:09:56.499Z,100992.22
2023-02-21T18:15:01.382Z,100984.97
2023-02-21T18:20:09.286Z,100984.53
2023-02-21T18:25:14.331Z,100996.03
2023-02-21T18:30:20.066Z,101000.31
2023-02-21T18:35:23.537Z,101001.84
2023-02-21T18:40:34.256Z,101010.41
2023-02-21T18:45:40.530Z,100991.66
2023-02-21T18:50:44.533Z,100993.50
2023-02-21T18:55:47.987Z,101002.47
2023-02-21T19:00:52.963Z,100996.38
2023-02-21T19:06:02.966Z,100993.97
2023-02-21T19:11:06.468Z,100997.81
2023-02-21T19:16:11.337Z,101006.25
2023-02-21T19:21:15.212Z,101005.88
2023-02-21T19:26:19.449Z,101000.31
2023-02-21T19:31:24.480Z,101001.94
2023-02-21T19:36:28.133Z,100997.06
2023-02-21T19:41:31.624Z,101005.22
2023-02-21T19:46:36.565Z,100997.72
2023-02-21T19:51:40.240Z,101008.50
2023-02-21T19:56:43.757Z,101010.50
2023-02-21T20:01:48.763Z,101008.59
2023-02-21T20:06:52.151Z,101013.38
2023-02-21T20:11:55.744Z,101012.22
2023-02-21T20:17:00.599Z,101010.50
2023-02-21T20:22:04.103Z,101015.13
2023-02-21T20:27:07.501Z,101009.69
2023-02-21T20:32:12.326Z,101013.78
2023-02-21T20:37:16.841Z,101012.25
2023-02-21T20:42:22.613Z,101012.50
2023-02-21T20:47:29.057Z,101003.25
2023-02-21T20:52:32.714Z,100996.78
2023-02-21T20:57:36.883Z,100992.22
2023-02-21T21:02:41.688Z,100985.94
2023-02-21T21:07:46.006Z,100985.38
2023-02-21T21:12:51.341Z,100990.78
2023-02-21T21:17:56.264Z,100985.06
2023-02-21T21:23:00.391Z,100992.34
2023-02-21T21:28:05.825Z,100987.38
2023-02-21T21:33:11.100Z,100985.78
2023-02-21T21:38:16.052Z,100983.50
2023-02-21T21:43:19.685Z,100974.34
2023-02-21T21:48:24.800Z,100977.06
2023-02-21T21:53:28.248Z,100974.56
2023-02-21T21:58:33.680Z,100974.00
2023-02-21T22:03:38.501Z,100973.16
2023-02-21T22:08:41.904Z,100969.50
2023-02-21T22:13:46.185Z,100968.34
2023-02-21T22:18:52.336Z,100963.16
2023-02-21T22:23:57.113Z,100957.09
2023-02-21T22:29:05.851Z,100959.38
2023-02-21T22:34:23.559Z,100955.53
2023-02-21T22:39:27.827Z,100954.84
2023-02-21T22:44:31.273Z,100937.56
2023-02-21T22:49:36.076Z,100936.03
2023-02-21T22:54:39.499Z,100931.25
2023-02-21T22:59:45.446Z,100923.38
2023-02-21T23:04:50.341Z,100914.53
2023-02-21T23:09:53.748Z,100910.69
2023-02-21T23:14:57.153Z,100906.69
2023-02-21T23:20:16.458Z,100913.72
2023-02-21T23:25:23.141Z,100906.34
2023-02-21T23:30:27.779Z,100904.06
2023-02-21T23:35:32.580Z,100898.47
2023-02-21T23:40:39.184Z,100904.53
2023-02-21T23:45:42.803Z,100899.72
2023-02-21T23:50:48.351Z,100899.22
2023-02-21T23:55:53.216Z,100895.66
